<?xml version="1.0" encoding="UTF-8" standalone="no" ?>
<gpx xmlns="http://www.topografix.com/GPX/1/1" creator="MapSource 6.11.6" version="1.1" xmlns:xsi="http://www.w3.org/2001/XMLSchema-instance" xsi:schemaLocation="http://www.topografix.com/GPX/1/1 http://www.topografix.com/GPX/1/1/gpx.xsd">

  <metadata>
    <link href="http://www.garmin.com">
      <text>Garmin International</text>
    </link>
    <time>2008-10-30T19:54:05Z</time>
    <bounds maxlat="50.521047" maxlon="6.234135" minlat="50.503095" minlon="6.207846"/>
  </metadata>

  <trk>
    <name>Kalterherberg Rundweg</name>
    <extensions>
      <gpxx:TrackExtension xmlns:gpxx="http://www.garmin.com/xmlschemas/GpxExtensions/v3" xmlns:xsi="http://www.w3.org/2001/XMLSchema-instance" xsi:schemaLocation="http://www.garmin.com/xmlschemas/GpxExtensions/v3 http://www.garmin.com/xmlschemas/GpxExtensions/v3/GpxExtensionsv3.xsd">
        <gpxx:DisplayColor>White</gpxx:DisplayColor>
      </gpxx:TrackExtension>
    </extensions>
    <trkseg>
      <trkpt lat="50.520892" lon="6.219546">
        <ele>559.000000</ele>
        <time>2008-01-30T12:01:42Z</time>
      </trkpt>
      <trkpt lat="50.520991" lon="6.219540">
        <ele>559.000000</ele>
        <time>2008-01-30T12:01:46Z</time>
      </trkpt>
      <trkpt lat="50.521047" lon="6.220383">
        <ele>562.000000</ele>
        <time>2008-01-30T12:02:07Z</time>
      </trkpt>
      <trkpt lat="50.520701" lon="6.220192">
        <ele>562.000000</ele>
        <time>2008-01-30T12:02:22Z</time>
      </trkpt>
      <trkpt lat="50.520310" lon="6.219637">
        <ele>565.000000</ele>
        <time>2008-01-30T12:02:43Z</time>
      </trkpt>
      <trkpt lat="50.519993" lon="6.219190">
        <ele>563.000000</ele>
        <time>2008-01-30T12:03:00Z</time>
      </trkpt>
      <trkpt lat="50.519481" lon="6.218811">
        <ele>565.000000</ele>
        <time>2008-01-30T12:03:23Z</time>
      </trkpt>
      <trkpt lat="50.519062" lon="6.218610">
        <ele>564.000000</ele>
        <time>2008-01-30T12:03:40Z</time>
      </trkpt>
      <trkpt lat="50.519139" lon="6.218069">
        <ele>564.000000</ele>
        <time>2008-01-30T12:03:54Z</time>
      </trkpt>
      <trkpt lat="50.519077" lon="6.217720">
        <ele>561.000000</ele>
        <time>2008-01-30T12:04:03Z</time>
      </trkpt>
      <trkpt lat="50.518652" lon="6.214995">
        <ele>557.000000</ele>
        <time>2008-01-30T12:05:15Z</time>
      </trkpt>
      <trkpt lat="50.518325" lon="6.215240">
        <ele>557.000000</ele>
        <time>2008-01-30T12:05:29Z</time>
      </trkpt>
      <trkpt lat="50.517988" lon="6.212397">
        <ele>556.000000</ele>
        <time>2008-01-30T12:06:43Z</time>
      </trkpt>
      <trkpt lat="50.519382" lon="6.212061">
        <ele>551.000000</ele>
        <time>2008-01-30T12:07:39Z</time>
      </trkpt>
      <trkpt lat="50.519530" lon="6.209951">
        <ele>549.000000</ele>
        <time>2008-01-30T12:08:34Z</time>
      </trkpt>
      <trkpt lat="50.519821" lon="6.207846">
        <ele>525.000000</ele>
        <time>2008-01-30T12:09:28Z</time>
      </trkpt>
      <trkpt lat="50.519284" lon="6.207963">
        <ele>541.000000</ele>
        <time>2008-01-30T12:09:50Z</time>
      </trkpt>
      <trkpt lat="50.518815" lon="6.208258">
        <ele>541.000000</ele>
        <time>2008-01-30T12:10:10Z</time>
      </trkpt>
      <trkpt lat="50.518291" lon="6.208571">
        <ele>536.000000</ele>
        <time>2008-01-30T12:10:33Z</time>
      </trkpt>
      <trkpt lat="50.517991" lon="6.208801">
        <ele>543.000000</ele>
        <time>2008-01-30T12:10:46Z</time>
      </trkpt>
      <trkpt lat="50.517602" lon="6.209049">
        <ele>537.000000</ele>
        <time>2008-01-30T12:11:03Z</time>
      </trkpt>
      <trkpt lat="50.517243" lon="6.209465">
        <ele>537.000000</ele>
        <time>2008-01-30T12:11:21Z</time>
      </trkpt>
      <trkpt lat="50.516891" lon="6.210149">
        <ele>536.000000</ele>
        <time>2008-01-30T12:11:43Z</time>
      </trkpt>
      <trkpt lat="50.516772" lon="6.210438">
        <ele>542.000000</ele>
        <time>2008-01-30T12:11:52Z</time>
      </trkpt>
      <trkpt lat="50.516669" lon="6.211008">
        <ele>542.000000</ele>
        <time>2008-01-30T12:12:07Z</time>
      </trkpt>
      <trkpt lat="50.516567" lon="6.211635">
        <ele>549.000000</ele>
        <time>2008-01-30T12:12:23Z</time>
      </trkpt>
      <trkpt lat="50.516360" lon="6.211999">
        <ele>549.000000</ele>
        <time>2008-01-30T12:12:36Z</time>
      </trkpt>
      <trkpt lat="50.516180" lon="6.212405">
        <ele>537.000000</ele>
        <time>2008-01-30T12:12:48Z</time>
      </trkpt>
      <trkpt lat="50.516022" lon="6.212908">
        <ele>537.000000</ele>
        <time>2008-01-30T12:13:03Z</time>
      </trkpt>
      <trkpt lat="50.516360" lon="6.215793">
        <ele>553.000000</ele>
        <time>2008-01-30T12:14:17Z</time>
      </trkpt>
      <trkpt lat="50.516014" lon="6.215969">
        <ele>550.000000</ele>
        <time>2008-01-30T12:14:32Z</time>
      </trkpt>
      <trkpt lat="50.515537" lon="6.216307">
        <ele>556.000000</ele>
        <time>2008-01-30T12:14:53Z</time>
      </trkpt>
      <trkpt lat="50.515247" lon="6.216606">
        <ele>556.000000</ele>
        <time>2008-01-30T12:15:07Z</time>
      </trkpt>
      <trkpt lat="50.515073" lon="6.216870">
        <ele>556.000000</ele>
        <time>2008-01-30T12:15:16Z</time>
      </trkpt>
      <trkpt lat="50.514454" lon="6.216159">
        <ele>553.000000</ele>
        <time>2008-01-30T12:15:47Z</time>
      </trkpt>
      <trkpt lat="50.514076" lon="6.216125">
        <ele>553.000000</ele>
        <time>2008-01-30T12:16:02Z</time>
      </trkpt>
      <trkpt lat="50.513720" lon="6.216301">
        <ele>557.000000</ele>
        <time>2008-01-30T12:16:17Z</time>
      </trkpt>
      <trkpt lat="50.513387" lon="6.216278">
        <ele>557.000000</ele>
        <time>2008-01-30T12:16:31Z</time>
      </trkpt>
      <trkpt lat="50.513060" lon="6.215381">
        <ele>551.000000</ele>
        <time>2008-01-30T12:16:57Z</time>
      </trkpt>
      <trkpt lat="50.512773" lon="6.214312">
        <ele>544.000000</ele>
        <time>2008-01-30T12:17:26Z</time>
      </trkpt>
      <trkpt lat="50.512628" lon="6.214264">
        <ele>544.000000</ele>
        <time>2008-01-30T12:17:32Z</time>
      </trkpt>
      <trkpt lat="50.511894" lon="6.214378">
        <ele>542.000000</ele>
        <time>2008-01-30T12:18:02Z</time>
      </trkpt>
      <trkpt lat="50.511653" lon="6.214448">
        <ele>542.000000</ele>
        <time>2008-01-30T12:18:12Z</time>
      </trkpt>
      <trkpt lat="50.511384" lon="6.214873">
        <ele>547.000000</ele>
        <time>2008-01-30T12:18:27Z</time>
      </trkpt>
      <trkpt lat="50.511166" lon="6.215154">
        <ele>543.000000</ele>
        <time>2008-01-30T12:18:38Z</time>
      </trkpt>
      <trkpt lat="50.510970" lon="6.215222">
        <ele>543.000000</ele>
        <time>2008-01-30T12:18:46Z</time>
      </trkpt>
      <trkpt lat="50.510770" lon="6.215121">
        <ele>543.000000</ele>
        <time>2008-01-30T12:18:55Z</time>
      </trkpt>
      <trkpt lat="50.510461" lon="6.214631">
        <ele>543.000000</ele>
        <time>2008-01-30T12:19:12Z</time>
      </trkpt>
      <trkpt lat="50.510267" lon="6.214417">
        <ele>545.000000</ele>
        <time>2008-01-30T12:19:22Z</time>
      </trkpt>
      <trkpt lat="50.509969" lon="6.214364">
        <ele>545.000000</ele>
        <time>2008-01-30T12:19:34Z</time>
      </trkpt>
      <trkpt lat="50.509108" lon="6.214429">
        <ele>550.000000</ele>
        <time>2008-01-30T12:20:08Z</time>
      </trkpt>
      <trkpt lat="50.508870" lon="6.214288">
        <ele>550.000000</ele>
        <time>2008-01-30T12:20:18Z</time>
      </trkpt>
      <trkpt lat="50.508568" lon="6.214038">
        <ele>559.000000</ele>
        <time>2008-01-30T12:20:32Z</time>
      </trkpt>
      <trkpt lat="50.508240" lon="6.213874">
        <ele>559.000000</ele>
        <time>2008-01-30T12:20:46Z</time>
      </trkpt>
      <trkpt lat="50.504137" lon="6.216780">
        <ele>581.000000</ele>
        <time>2008-01-30T12:23:46Z</time>
      </trkpt>
      <trkpt lat="50.503480" lon="6.217876">
        <ele>579.000000</ele>
        <time>2008-01-30T12:24:24Z</time>
      </trkpt>
      <trkpt lat="50.503131" lon="6.218700">
        <ele>574.000000</ele>
        <time>2008-01-30T12:24:50Z</time>
      </trkpt>
      <trkpt lat="50.503095" lon="6.220183">
        <ele>575.000000</ele>
        <time>2008-01-30T12:25:27Z</time>
      </trkpt>
      <trkpt lat="50.503373" lon="6.220928">
        <ele>574.000000</ele>
        <time>2008-01-30T12:25:49Z</time>
      </trkpt>
      <trkpt lat="50.503722" lon="6.221217">
        <ele>574.000000</ele>
        <time>2008-01-30T12:26:05Z</time>
      </trkpt>
      <trkpt lat="50.503518" lon="6.225868">
        <ele>592.000000</ele>
        <time>2008-01-30T12:28:04Z</time>
      </trkpt>
      <trkpt lat="50.503229" lon="6.228817">
        <ele>597.000000</ele>
        <time>2008-01-30T12:29:20Z</time>
      </trkpt>
      <trkpt lat="50.504918" lon="6.230255">
        <ele>597.000000</ele>
        <time>2008-01-30T12:30:37Z</time>
      </trkpt>
      <trkpt lat="50.506264" lon="6.231290">
        <ele>598.000000</ele>
        <time>2008-01-30T12:31:37Z</time>
      </trkpt>
      <trkpt lat="50.506473" lon="6.231391">
        <ele>598.000000</ele>
        <time>2008-01-30T12:31:45Z</time>
      </trkpt>
      <trkpt lat="50.507576" lon="6.231622">
        <ele>595.000000</ele>
        <time>2008-01-30T12:32:30Z</time>
      </trkpt>
      <trkpt lat="50.507536" lon="6.231864">
        <ele>595.000000</ele>
        <time>2008-01-30T12:32:36Z</time>
      </trkpt>
      <trkpt lat="50.507622" lon="6.232071">
        <ele>595.000000</ele>
        <time>2008-01-30T12:32:43Z</time>
      </trkpt>
      <trkpt lat="50.507012" lon="6.233263">
        <ele>593.000000</ele>
        <time>2008-01-30T12:33:22Z</time>
      </trkpt>
      <trkpt lat="50.507537" lon="6.234135">
        <ele>587.000000</ele>
        <time>2008-01-30T12:33:52Z</time>
      </trkpt>
      <trkpt lat="50.508029" lon="6.232921">
        <ele>585.000000</ele>
        <time>2008-01-30T12:34:29Z</time>
      </trkpt>
      <trkpt lat="50.508308" lon="6.232567">
        <ele>590.000000</ele>
        <time>2008-01-30T12:34:43Z</time>
      </trkpt>
      <trkpt lat="50.508779" lon="6.231947">
        <ele>592.000000</ele>
        <time>2008-01-30T12:35:08Z</time>
      </trkpt>
      <trkpt lat="50.508981" lon="6.231724">
        <ele>592.000000</ele>
        <time>2008-01-30T12:35:18Z</time>
      </trkpt>
      <trkpt lat="50.509420" lon="6.230922">
        <ele>593.000000</ele>
        <time>2008-01-30T12:35:44Z</time>
      </trkpt>
      <trkpt lat="50.510178" lon="6.231766">
        <ele>589.000000</ele>
        <time>2008-01-30T12:36:22Z</time>
      </trkpt>
      <trkpt lat="50.510894" lon="6.233149">
        <ele>577.000000</ele>
        <time>2008-01-30T12:37:07Z</time>
      </trkpt>
      <trkpt lat="50.512318" lon="6.232910">
        <ele>582.000000</ele>
        <time>2008-01-30T12:38:04Z</time>
      </trkpt>
      <trkpt lat="50.512817" lon="6.231950">
        <ele>583.000000</ele>
        <time>2008-01-30T12:38:36Z</time>
      </trkpt>
      <trkpt lat="50.514153" lon="6.229926">
        <ele>572.000000</ele>
        <time>2008-01-30T12:39:50Z</time>
      </trkpt>
      <trkpt lat="50.514908" lon="6.228782">
        <ele>564.000000</ele>
        <time>2008-01-30T12:40:32Z</time>
      </trkpt>
      <trkpt lat="50.516419" lon="6.228031">
        <ele>557.000000</ele>
        <time>2008-01-30T12:41:36Z</time>
      </trkpt>
      <trkpt lat="50.517239" lon="6.226234">
        <ele>557.000000</ele>
        <time>2008-01-30T12:42:32Z</time>
      </trkpt>
      <trkpt lat="50.518496" lon="6.224651">
        <ele>562.000000</ele>
        <time>2008-01-30T12:43:36Z</time>
      </trkpt>
      <trkpt lat="50.518835" lon="6.224138">
        <ele>565.000000</ele>
        <time>2008-01-30T12:43:55Z</time>
      </trkpt>
      <trkpt lat="50.519302" lon="6.223391">
        <ele>568.000000</ele>
        <time>2008-01-30T12:44:22Z</time>
      </trkpt>
      <trkpt lat="50.518805" lon="6.222531">
        <ele>568.000000</ele>
        <time>2008-01-30T12:44:51Z</time>
      </trkpt>
      <trkpt lat="50.519204" lon="6.221916">
        <ele>568.000000</ele>
        <time>2008-01-30T12:45:14Z</time>
      </trkpt>
      <trkpt lat="50.519414" lon="6.221664">
        <ele>568.000000</ele>
        <time>2008-01-30T12:45:24Z</time>
      </trkpt>
      <trkpt lat="50.519615" lon="6.221412">
        <ele>566.000000</ele>
        <time>2008-01-30T12:45:35Z</time>
      </trkpt>
      <trkpt lat="50.519798" lon="6.221162">
        <ele>565.000000</ele>
        <time>2008-01-30T12:45:44Z</time>
      </trkpt>
      <trkpt lat="50.519954" lon="6.220913">
        <ele>565.000000</ele>
        <time>2008-01-30T12:45:53Z</time>
      </trkpt>
      <trkpt lat="50.520407" lon="6.220674">
        <ele>565.000000</ele>
        <time>2008-01-30T12:46:12Z</time>
      </trkpt>
      <trkpt lat="50.520608" lon="6.220084">
        <ele>562.000000</ele>
        <time>2008-01-30T12:46:29Z</time>
      </trkpt>
    </trkseg>
  </trk>

</gpx>
